sensor_id;sensor_type;location;lat;lon;timestamp;P1;durP1;ratioP1;P2;durP2;ratioP2
19877;SDS011;10101;52.204;9.910;2024-02-26T00:02:15;3.20;;;2.30;;
19877;SDS011;10101;52.204;9.910;2024-02-26T00:04:42;5.20;;;2.70;;
19877;SDS011;10101;52.204;9.910;2024-02-26T00:07:09;5.50;;;2.43;;
19877;SDS011;10101;52.204;9.910;2024-02-26T00:09:36;2.90;;;2.20;;
19877;SDS011;10101;52.204;9.910;2024-02-26T00:12:03;4.60;;;2.33;;
19877;SDS011;10101;52.204;9.910;2024-02-26T00:14:30;3.57;;;2.10;;
19877;SDS011;10101;52.204;9.910;2024-02-26T00:16:57;3.53;;;2.00;;
19877;SDS011;10101;52.204;9.910;2024-02-26T00:19:25;3.73;;;2.00;;
19877;SDS011;10101;52.204;9.910;2024-02-26T00:21:51;2.33;;;2.00;;
19877;SDS011;10101;52.204;9.910;2024-02-26T00:24:20;2.40;;;1.80;;
19877;SDS011;10101;52.204;9.910;2024-02-26T00:26:47;5.97;;;2.33;;
19877;SDS011;10101;52.204;9.910;2024-02-26T00:29:18;2.30;;;2.00;;
19877;SDS011;10101;52.204;9.910;2024-02-26T00:31:44;3.13;;;2.17;;
19877;SDS011;10101;52.204;9.910;2024-02-26T00:34:11;2.80;;;2.00;;
19877;SDS011;10101;52.204;9.910;2024-02-26T00:36:39;3.83;;;2.10;;
19877;SDS011;10101;52.204;9.910;2024-02-26T00:39:06;2.37;;;2.17;;
19877;SDS011;10101;52.204;9.910;2024-02-26T00:41:32;2.67;;;2.00;;
19877;SDS011;10101;52.204;9.910;2024-02-26T00:44:03;3.00;;;2.20;;
19877;SDS011;10101;52.204;9.910;2024-02-26T00:46:30;2.90;;;2.30;;
19877;SDS011;10101;52.204;9.910;2024-02-26T00:48:57;4.73;;;2.50;;
19877;SDS011;10101;52.204;9.910;2024-02-26T00:51:23;3.00;;;2.20;;
19877;SDS011;10101;52.204;9.910;2024-02-26T00:53:51;4.67;;;2.30;;
19877;SDS011;10101;52.204;9.910;2024-02-26T00:56:18;3.23;;;2.33;;
19877;SDS011;10101;52.204;9.910;2024-02-26T00:58:45;2.43;;;1.93;;
19877;SDS011;10101;52.204;9.910;2024-02-26T01:01:12;3.87;;;2.17;;
19877;SDS011;10101;52.204;9.910;2024-02-26T01:03:38;3.97;;;2.27;;
19877;SDS011;10101;52.204;9.910;2024-02-26T01:06:05;2.50;;;1.87;;
19877;SDS011;10101;52.204;9.910;2024-02-26T01:08:32;3.03;;;2.27;;
19877;SDS011;10101;52.204;9.910;2024-02-26T01:11:02;2.80;;;2.00;;
19877;SDS011;10101;52.204;9.910;2024-02-26T01:13:29;3.57;;;2.20;;
19877;SDS011;10101;52.204;9.910;2024-02-26T01:15:55;3.30;;;2.27;;
19877;SDS011;10101;52.204;9.910;2024-02-26T01:18:22;2.70;;;1.90;;
19877;SDS011;10101;52.204;9.910;2024-02-26T01:20:49;4.03;;;2.47;;
19877;SDS011;10101;52.204;9.910;2024-02-26T01:23:16;2.87;;;2.27;;
19877;SDS011;10101;52.204;9.910;2024-02-26T01:25:43;3.40;;;2.30;;
19877;SDS011;10101;52.204;9.910;2024-02-26T01:28:11;2.63;;;2.10;;
19877;SDS011;10101;52.204;9.910;2024-02-26T01:30:37;3.03;;;2.23;;
19877;SDS011;10101;52.204;9.910;2024-02-26T01:33:04;2.43;;;2.00;;
19877;SDS011;10101;52.204;9.910;2024-02-26T01:35:31;3.17;;;2.20;;
19877;SDS011;10101;52.204;9.910;2024-02-26T01:37:57;2.40;;;2.00;;
19877;SDS011;10101;52.204;9.910;2024-02-26T01:40:26;3.90;;;2.37;;
19877;SDS011;10101;52.204;9.910;2024-02-26T01:42:53;2.97;;;1.97;;
19877;SDS011;10101;52.204;9.910;2024-02-26T01:45:21;3.73;;;2.30;;
19877;SDS011;10101;52.204;9.910;2024-02-26T01:47:50;4.03;;;2.33;;
19877;SDS011;10101;52.204;9.910;2024-02-26T01:50:17;2.53;;;2.00;;
19877;SDS011;10101;52.204;9.910;2024-02-26T01:52:44;3.90;;;2.10;;
19877;SDS011;10101;52.204;9.910;2024-02-26T01:55:12;4.57;;;2.83;;
19877;SDS011;10101;52.204;9.910;2024-02-26T01:57:40;2.87;;;2.47;;
19877;SDS011;10101;52.204;9.910;2024-02-26T02:00:08;3.90;;;2.37;;
19877;SDS011;10101;52.204;9.910;2024-02-26T02:02:37;3.70;;;2.47;;
19877;SDS011;10101;52.204;9.910;2024-02-26T02:05:07;3.83;;;2.60;;
19877;SDS011;10101;52.204;9.910;2024-02-26T02:07:35;4.27;;;2.50;;
19877;SDS011;10101;52.204;9.910;2024-02-26T02:10:02;4.43;;;2.37;;
19877;SDS011;10101;52.204;9.910;2024-02-26T02:12:29;2.53;;;2.10;;
19877;SDS011;10101;52.204;9.910;2024-02-26T02:14:57;4.60;;;2.40;;
19877;SDS011;10101;52.204;9.910;2024-02-26T02:17:24;3.50;;;2.57;;
19877;SDS011;10101;52.204;9.910;2024-02-26T02:19:52;3.73;;;2.60;;
19877;SDS011;10101;52.204;9.910;2024-02-26T02:22:21;4.30;;;2.77;;
19877;SDS011;10101;52.204;9.910;2024-02-26T02:24:48;3.10;;;2.50;;
19877;SDS011;10101;52.204;9.910;2024-02-26T02:27:15;4.20;;;2.57;;
19877;SDS011;10101;52.204;9.910;2024-02-26T02:29:42;3.07;;;2.37;;
19877;SDS011;10101;52.204;9.910;2024-02-26T02:32:09;3.40;;;2.60;;
19877;SDS011;10101;52.204;9.910;2024-02-26T02:34:36;4.10;;;2.47;;
19877;SDS011;10101;52.204;9.910;2024-02-26T02:37:03;3.37;;;2.43;;
19877;SDS011;10101;52.204;9.910;2024-02-26T02:39:31;3.07;;;2.37;;
19877;SDS011;10101;52.204;9.910;2024-02-26T02:41:58;3.13;;;2.40;;
19877;SDS011;10101;52.204;9.910;2024-02-26T02:44:24;2.63;;;2.43;;
19877;SDS011;10101;52.204;9.910;2024-02-26T02:46:51;3.03;;;2.27;;
19877;SDS011;10101;52.204;9.910;2024-02-26T02:49:18;3.93;;;2.60;;
19877;SDS011;10101;52.204;9.910;2024-02-26T02:51:45;2.57;;;2.37;;
19877;SDS011;10101;52.204;9.910;2024-02-26T02:54:11;3.73;;;2.73;;
19877;SDS011;10101;52.204;9.910;2024-02-26T02:56:40;4.57;;;2.87;;
19877;SDS011;10101;52.204;9.910;2024-02-26T02:59:06;3.77;;;2.87;;
19877;SDS011;10101;52.204;9.910;2024-02-26T03:01:33;2.47;;;2.20;;
19877;SDS011;10101;52.204;9.910;2024-02-26T03:04:00;5.03;;;2.70;;
19877;SDS011;10101;52.204;9.910;2024-02-26T03:06:26;3.20;;;2.60;;
19877;SDS011;10101;52.204;9.910;2024-02-26T03:08:53;3.40;;;2.50;;
19877;SDS011;10101;52.204;9.910;2024-02-26T03:11:20;3.50;;;2.50;;
19877;SDS011;10101;52.204;9.910;2024-02-26T03:13:48;4.93;;;3.10;;
19877;SDS011;10101;52.204;9.910;2024-02-26T03:16:16;4.67;;;2.60;;
19877;SDS011;10101;52.204;9.910;2024-02-26T03:18:43;6.70;;;2.40;;
19877;SDS011;10101;52.204;9.910;2024-02-26T03:21:10;4.03;;;2.80;;
19877;SDS011;10101;52.204;9.910;2024-02-26T03:23:37;3.10;;;2.57;;
19877;SDS011;10101;52.204;9.910;2024-02-26T03:26:03;3.57;;;2.70;;
19877;SDS011;10101;52.204;9.910;2024-02-26T03:28:30;3.87;;;2.63;;
19877;SDS011;10101;52.204;9.910;2024-02-26T03:30:59;3.80;;;2.77;;
19877;SDS011;10101;52.204;9.910;2024-02-26T03:33:27;4.27;;;2.80;;
19877;SDS011;10101;52.204;9.910;2024-02-26T03:35:53;3.93;;;2.80;;
19877;SDS011;10101;52.204;9.910;2024-02-26T03:38:20;6.77;;;2.90;;
19877;SDS011;10101;52.204;9.910;2024-02-26T03:40:47;6.43;;;3.17;;
19877;SDS011;10101;52.204;9.910;2024-02-26T03:43:14;6.17;;;3.10;;
19877;SDS011;10101;52.204;9.910;2024-02-26T03:45:40;5.93;;;2.90;;
19877;SDS011;10101;52.204;9.910;2024-02-26T03:48:09;6.30;;;3.20;;
19877;SDS011;10101;52.204;9.910;2024-02-26T03:50:35;7.37;;;3.20;;
19877;SDS011;10101;52.204;9.910;2024-02-26T03:53:02;4.97;;;3.20;;
19877;SDS011;10101;52.204;9.910;2024-02-26T03:55:29;5.63;;;2.83;;
19877;SDS011;10101;52.204;9.910;2024-02-26T03:57:56;4.50;;;2.80;;
19877;SDS011;10101;52.204;9.910;2024-02-26T04:00:22;3.93;;;2.53;;
19877;SDS011;10101;52.204;9.910;2024-02-26T04:02:50;4.17;;;2.60;;
19877;SDS011;10101;52.204;9.910;2024-02-26T04:05:20;3.53;;;2.47;;
19877;SDS011;10101;52.204;9.910;2024-02-26T04:07:47;3.40;;;2.17;;
19877;SDS011;10101;52.204;9.910;2024-02-26T04:10:14;4.23;;;2.50;;
19877;SDS011;10101;52.204;9.910;2024-02-26T04:12:41;2.53;;;2.30;;
19877;SDS011;10101;52.204;9.910;2024-02-26T04:15:09;3.13;;;2.40;;
19877;SDS011;10101;52.204;9.910;2024-02-26T04:17:36;2.67;;;2.30;;
19877;SDS011;10101;52.204;9.910;2024-02-26T04:20:04;3.57;;;2.40;;
19877;SDS011;10101;52.204;9.910;2024-02-26T04:22:33;3.50;;;2.47;;
19877;SDS011;10101;52.204;9.910;2024-02-26T04:25:00;3.33;;;2.20;;
19877;SDS011;10101;52.204;9.910;2024-02-26T04:27:26;3.40;;;2.60;;
19877;SDS011;10101;52.204;9.910;2024-02-26T04:29:53;4.23;;;2.40;;
19877;SDS011;10101;52.204;9.910;2024-02-26T04:32:20;3.13;;;2.30;;
19877;SDS011;10101;52.204;9.910;2024-02-26T04:34:46;2.80;;;2.20;;
19877;SDS011;10101;52.204;9.910;2024-02-26T04:37:13;2.80;;;2.30;;
19877;SDS011;10101;52.204;9.910;2024-02-26T04:39:41;3.53;;;2.50;;
19877;SDS011;10101;52.204;9.910;2024-02-26T04:42:08;3.63;;;2.30;;
19877;SDS011;10101;52.204;9.910;2024-02-26T04:44:35;3.80;;;2.50;;
19877;SDS011;10101;52.204;9.910;2024-02-26T04:47:01;3.17;;;2.53;;
19877;SDS011;10101;52.204;9.910;2024-02-26T04:49:28;3.37;;;2.63;;
19877;SDS011;10101;52.204;9.910;2024-02-26T04:51:55;5.20;;;2.50;;
19877;SDS011;10101;52.204;9.910;2024-02-26T04:54:22;5.13;;;2.93;;
19877;SDS011;10101;52.204;9.910;2024-02-26T04:56:50;3.20;;;2.43;;
19877;SDS011;10101;52.204;9.910;2024-02-26T04:59:17;5.30;;;2.77;;
19877;SDS011;10101;52.204;9.910;2024-02-26T05:01:44;3.40;;;2.47;;
19877;SDS011;10101;52.204;9.910;2024-02-26T05:04:10;3.70;;;2.63;;
19877;SDS011;10101;52.204;9.910;2024-02-26T05:06:37;3.00;;;2.50;;
19877;SDS011;10101;52.204;9.910;2024-02-26T05:09:04;4.63;;;2.73;;
19877;SDS011;10101;52.204;9.910;2024-02-26T05:11:31;3.83;;;2.60;;
19877;SDS011;10101;52.204;9.910;2024-02-26T05:13:59;3.80;;;2.77;;
19877;SDS011;10101;52.204;9.910;2024-02-26T05:16:26;3.37;;;2.60;;
19877;SDS011;10101;52.204;9.910;2024-02-26T05:18:55;3.07;;;2.60;;
19877;SDS011;10101;52.204;9.910;2024-02-26T05:21:21;3.80;;;2.40;;
19877;SDS011;10101;52.204;9.910;2024-02-26T05:23:48;3.33;;;2.63;;
19877;SDS011;10101;52.204;9.910;2024-02-26T05:26:19;3.37;;;2.67;;
19877;SDS011;10101;52.204;9.910;2024-02-26T05:28:46;4.30;;;3.27;;
19877;SDS011;10101;52.204;9.910;2024-02-26T05:31:14;4.43;;;2.90;;
19877;SDS011;10101;52.204;9.910;2024-02-26T05:33:41;3.90;;;2.60;;
19877;SDS011;10101;52.204;9.910;2024-02-26T05:36:08;3.27;;;2.37;;
19877;SDS011;10101;52.204;9.910;2024-02-26T05:38:35;3.10;;;2.47;;
19877;SDS011;10101;52.204;9.910;2024-02-26T05:41:01;4.00;;;2.67;;
19877;SDS011;10101;52.204;9.910;2024-02-26T05:43:29;4.90;;;3.10;;
19877;SDS011;10101;52.204;9.910;2024-02-26T05:45:56;6.70;;;4.60;;
19877;SDS011;10101;52.204;9.910;2024-02-26T05:48:24;5.43;;;3.87;;
19877;SDS011;10101;52.204;9.910;2024-02-26T05:50:51;4.23;;;3.23;;
19877;SDS011;10101;52.204;9.910;2024-02-26T05:53:18;4.90;;;2.97;;
19877;SDS011;10101;52.204;9.910;2024-02-26T05:55:44;4.97;;;2.90;;
19877;SDS011;10101;52.204;9.910;2024-02-26T05:58:11;6.97;;;3.43;;
19877;SDS011;10101;52.204;9.910;2024-02-26T06:00:39;2.80;;;2.50;;
19877;SDS011;10101;52.204;9.910;2024-02-26T06:03:05;3.77;;;2.70;;
19877;SDS011;10101;52.204;9.910;2024-02-26T06:05:34;4.03;;;2.90;;
19877;SDS011;10101;52.204;9.910;2024-02-26T06:08:00;4.67;;;2.80;;
19877;SDS011;10101;52.204;9.910;2024-02-26T06:10:27;4.87;;;2.63;;
19877;SDS011;10101;52.204;9.910;2024-02-26T06:12:54;3.50;;;2.97;;
19877;SDS011;10101;52.204;9.910;2024-02-26T06:15:21;5.00;;;3.03;;
19877;SDS011;10101;52.204;9.910;2024-02-26T06:17:48;4.10;;;2.40;;
19877;SDS011;10101;52.204;9.910;2024-02-26T06:20:15;4.13;;;2.80;;
19877;SDS011;10101;52.204;9.910;2024-02-26T06:22:43;4.77;;;3.13;;
19877;SDS011;10101;52.204;9.910;2024-02-26T06:25:10;4.97;;;3.27;;
19877;SDS011;10101;52.204;9.910;2024-02-26T06:27:36;4.37;;;2.93;;
19877;SDS011;10101;52.204;9.910;2024-02-26T06:30:04;4.20;;;2.70;;
19877;SDS011;10101;52.204;9.910;2024-02-26T06:32:31;5.87;;;3.30;;
19877;SDS011;10101;52.204;9.910;2024-02-26T06:34:58;4.37;;;2.90;;
19877;SDS011;10101;52.204;9.910;2024-02-26T06:37:25;4.63;;;3.13;;
19877;SDS011;10101;52.204;9.910;2024-02-26T06:39:53;4.50;;;3.37;;
19877;SDS011;10101;52.204;9.910;2024-02-26T06:42:19;4.87;;;3.20;;
19877;SDS011;10101;52.204;9.910;2024-02-26T06:44:46;5.37;;;3.23;;
19877;SDS011;10101;52.204;9.910;2024-02-26T06:47:13;4.67;;;3.23;;
19877;SDS011;10101;52.204;9.910;2024-02-26T06:49:40;6.63;;;3.30;;
19877;SDS011;10101;52.204;9.910;2024-02-26T06:52:07;5.70;;;3.47;;
19877;SDS011;10101;52.204;9.910;2024-02-26T06:54:33;5.80;;;3.63;;
19877;SDS011;10101;52.204;9.910;2024-02-26T06:57:02;4.80;;;3.20;;
19877;SDS011;10101;52.204;9.910;2024-02-26T06:59:29;3.97;;;3.13;;
19877;SDS011;10101;52.204;9.910;2024-02-26T07:01:55;5.17;;;3.33;;
19877;SDS011;10101;52.204;9.910;2024-02-26T07:04:22;5.63;;;3.80;;
19877;SDS011;10101;52.204;9.910;2024-02-26T07:06:49;5.17;;;3.37;;
19877;SDS011;10101;52.204;9.910;2024-02-26T07:09:15;5.30;;;3.43;;
19877;SDS011;10101;52.204;9.910;2024-02-26T07:11:42;4.77;;;3.30;;
19877;SDS011;10101;52.204;9.910;2024-02-26T07:14:11;5.73;;;3.70;;
19877;SDS011;10101;52.204;9.910;2024-02-26T07:16:38;5.40;;;3.87;;
19877;SDS011;10101;52.204;9.910;2024-02-26T07:19:05;7.40;;;4.07;;
19877;SDS011;10101;52.204;9.910;2024-02-26T07:21:32;6.00;;;3.87;;
19877;SDS011;10101;52.204;9.910;2024-02-26T07:23:59;6.00;;;3.83;;
19877;SDS011;10101;52.204;9.910;2024-02-26T07:26:25;5.63;;;3.70;;
19877;SDS011;10101;52.204;9.910;2024-02-26T07:28:54;4.67;;;3.30;;
19877;SDS011;10101;52.204;9.910;2024-02-26T07:31:23;4.63;;;3.20;;
19877;SDS011;10101;52.204;9.910;2024-02-26T07:33:49;5.00;;;3.63;;
19877;SDS011;10101;52.204;9.910;2024-02-26T07:36:16;5.90;;;3.70;;
19877;SDS011;10101;52.204;9.910;2024-02-26T07:38:43;6.07;;;3.63;;
19877;SDS011;10101;52.204;9.910;2024-02-26T07:41:09;7.77;;;3.40;;
19877;SDS011;10101;52.204;9.910;2024-02-26T07:43:37;7.07;;;3.57;;
19877;SDS011;10101;52.204;9.910;2024-02-26T07:46:04;4.30;;;3.10;;
19877;SDS011;10101;52.204;9.910;2024-02-26T07:48:32;3.70;;;3.20;;
19877;SDS011;10101;52.204;9.910;2024-02-26T07:50:59;4.80;;;3.40;;
19877;SDS011;10101;52.204;9.910;2024-02-26T07:53:28;4.73;;;3.40;;
19877;SDS011;10101;52.204;9.910;2024-02-26T07:55:55;5.07;;;3.50;;
19877;SDS011;10101;52.204;9.910;2024-02-26T07:58:22;5.50;;;3.53;;
19877;SDS011;10101;52.204;9.910;2024-02-26T08:00:49;4.53;;;2.93;;
19877;SDS011;10101;52.204;9.910;2024-02-26T08:03:16;4.37;;;2.67;;
19877;SDS011;10101;52.204;9.910;2024-02-26T08:05:44;3.50;;;2.80;;
19877;SDS011;10101;52.204;9.910;2024-02-26T08:08:11;4.27;;;2.87;;
19877;SDS011;10101;52.204;9.910;2024-02-26T08:10:38;4.97;;;3.63;;
19877;SDS011;10101;52.204;9.910;2024-02-26T08:13:04;4.13;;;3.10;;
19877;SDS011;10101;52.204;9.910;2024-02-26T08:15:31;4.97;;;3.10;;
19877;SDS011;10101;52.204;9.910;2024-02-26T08:17:59;5.97;;;3.10;;
19877;SDS011;10101;52.204;9.910;2024-02-26T08:20:27;3.97;;;3.07;;
19877;SDS011;10101;52.204;9.910;2024-02-26T08:22:55;6.93;;;3.43;;
19877;SDS011;10101;52.204;9.910;2024-02-26T08:25:22;5.33;;;2.97;;
19877;SDS011;10101;52.204;9.910;2024-02-26T08:27:49;4.50;;;3.00;;
19877;SDS011;10101;52.204;9.910;2024-02-26T08:30:16;3.83;;;2.97;;
19877;SDS011;10101;52.204;9.910;2024-02-26T08:32:43;4.03;;;3.07;;
19877;SDS011;10101;52.204;9.910;2024-02-26T08:35:10;4.70;;;2.93;;
19877;SDS011;10101;52.204;9.910;2024-02-26T08:37:37;4.57;;;3.00;;
19877;SDS011;10101;52.204;9.910;2024-02-26T08:40:06;4.03;;;3.00;;
19877;SDS011;10101;52.204;9.910;2024-02-26T08:42:33;3.77;;;3.03;;
19877;SDS011;10101;52.204;9.910;2024-02-26T08:44:59;6.40;;;3.20;;
19877;SDS011;10101;52.204;9.910;2024-02-26T08:47:28;4.20;;;2.93;;
19877;SDS011;10101;52.204;9.910;2024-02-26T08:49:55;4.53;;;3.27;;
19877;SDS011;10101;52.204;9.910;2024-02-26T08:52:22;3.07;;;2.77;;
19877;SDS011;10101;52.204;9.910;2024-02-26T08:54:48;3.43;;;2.70;;
19877;SDS011;10101;52.204;9.910;2024-02-26T08:57:17;4.23;;;3.03;;
19877;SDS011;10101;52.204;9.910;2024-02-26T08:59:43;8.63;;;3.20;;
19877;SDS011;10101;52.204;9.910;2024-02-26T09:02:10;6.77;;;2.70;;
19877;SDS011;10101;52.204;9.910;2024-02-26T09:04:37;4.13;;;3.00;;
19877;SDS011;10101;52.204;9.910;2024-02-26T09:07:04;4.77;;;2.67;;
19877;SDS011;10101;52.204;9.910;2024-02-26T09:09:31;4.73;;;2.60;;
19877;SDS011;10101;52.204;9.910;2024-02-26T09:11:58;4.97;;;2.87;;
19877;SDS011;10101;52.204;9.910;2024-02-26T09:14:26;4.20;;;2.90;;
19877;SDS011;10101;52.204;9.910;2024-02-26T09:16:52;3.00;;;2.33;;
19877;SDS011;10101;52.204;9.910;2024-02-26T09:19:19;4.53;;;2.77;;
19877;SDS011;10101;52.204;9.910;2024-02-26T09:21:46;5.20;;;2.87;;
19877;SDS011;10101;52.204;9.910;2024-02-26T09:24:13;3.43;;;3.00;;
19877;SDS011;10101;52.204;9.910;2024-02-26T09:26:40;5.63;;;2.87;;
19877;SDS011;10101;52.204;9.910;2024-02-26T09:29:06;6.13;;;3.60;;
19877;SDS011;10101;52.204;9.910;2024-02-26T09:31:35;3.77;;;2.90;;
19877;SDS011;10101;52.204;9.910;2024-02-26T09:34:01;2.80;;;2.50;;
19877;SDS011;10101;52.204;9.910;2024-02-26T09:36:29;3.80;;;2.90;;
19877;SDS011;10101;52.204;9.910;2024-02-26T09:38:56;4.97;;;2.73;;
19877;SDS011;10101;52.204;9.910;2024-02-26T09:41:22;4.20;;;2.67;;
19877;SDS011;10101;52.204;9.910;2024-02-26T09:43:49;2.70;;;2.10;;
19877;SDS011;10101;52.204;9.910;2024-02-26T09:46:21;2.67;;;2.40;;
19877;SDS011;10101;52.204;9.910;2024-02-26T09:48:50;3.57;;;2.47;;
19877;SDS011;10101;52.204;9.910;2024-02-26T09:51:17;3.07;;;2.60;;
19877;SDS011;10101;52.204;9.910;2024-02-26T09:53:46;3.67;;;2.50;;
19877;SDS011;10101;52.204;9.910;2024-02-26T09:56:17;3.90;;;2.40;;
19877;SDS011;10101;52.204;9.910;2024-02-26T09:58:45;4.73;;;2.57;;
19877;SDS011;10101;52.204;9.910;2024-02-26T10:01:17;2.87;;;2.30;;
19877;SDS011;10101;52.204;9.910;2024-02-26T10:03:46;3.13;;;2.53;;
19877;SDS011;10101;52.204;9.910;2024-02-26T10:06:19;3.00;;;2.50;;
19877;SDS011;10101;52.204;9.910;2024-02-26T10:08:46;4.00;;;2.70;;
19877;SDS011;10101;52.204;9.910;2024-02-26T10:11:14;4.07;;;2.43;;
19877;SDS011;10101;52.204;9.910;2024-02-26T10:13:43;3.23;;;2.70;;
19877;SDS011;10101;52.204;9.910;2024-02-26T10:16:10;5.70;;;2.67;;
19877;SDS011;10101;52.204;9.910;2024-02-26T10:18:46;3.67;;;2.50;;
19877;SDS011;10101;52.204;9.910;2024-02-26T10:21:15;6.17;;;2.40;;
19877;SDS011;10101;52.204;9.910;2024-02-26T10:23:44;3.97;;;2.23;;
19877;SDS011;10101;52.204;9.910;2024-02-26T10:26:11;4.17;;;2.67;;
19877;SDS011;10101;52.204;9.910;2024-02-26T10:28:39;4.27;;;2.60;;
19877;SDS011;10101;52.204;9.910;2024-02-26T10:31:06;5.00;;;2.30;;
19877;SDS011;10101;52.204;9.910;2024-02-26T10:33:33;3.67;;;2.40;;
19877;SDS011;10101;52.204;9.910;2024-02-26T10:36:00;4.47;;;2.77;;
19877;SDS011;10101;52.204;9.910;2024-02-26T10:38:27;3.40;;;2.50;;
19877;SDS011;10101;52.204;9.910;2024-02-26T10:40:55;14.00;;;3.40;;
19877;SDS011;10101;52.204;9.910;2024-02-26T10:43:22;5.93;;;2.73;;
19877;SDS011;10101;52.204;9.910;2024-02-26T10:45:49;3.70;;;2.80;;
19877;SDS011;10101;52.204;9.910;2024-02-26T10:48:15;3.47;;;2.33;;
19877;SDS011;10101;52.204;9.910;2024-02-26T10:50:43;2.90;;;2.33;;
19877;SDS011;10101;52.204;9.910;2024-02-26T10:53:12;4.23;;;3.13;;
19877;SDS011;10101;52.204;9.910;2024-02-26T10:55:42;4.57;;;3.07;;
19877;SDS011;10101;52.204;9.910;2024-02-26T10:58:13;4.80;;;2.53;;
19877;SDS011;10101;52.204;9.910;2024-02-26T11:00:42;4.30;;;2.80;;
19877;SDS011;10101;52.204;9.910;2024-02-26T11:03:09;3.50;;;2.57;;
19877;SDS011;10101;52.204;9.910;2024-02-26T11:05:38;2.43;;;2.23;;
19877;SDS011;10101;52.204;9.910;2024-02-26T11:08:06;2.97;;;2.43;;
19877;SDS011;10101;52.204;9.910;2024-02-26T11:10:33;3.20;;;2.20;;
19877;SDS011;10101;52.204;9.910;2024-02-26T11:13:00;4.90;;;2.33;;
19877;SDS011;10101;52.204;9.910;2024-02-26T11:15:30;4.33;;;1.90;;
19877;SDS011;10101;52.204;9.910;2024-02-26T11:17:59;3.80;;;1.93;;
19877;SDS011;10101;52.204;9.910;2024-02-26T11:20:27;3.83;;;2.00;;
19877;SDS011;10101;52.204;9.910;2024-02-26T11:22:54;4.30;;;2.13;;
19877;SDS011;10101;52.204;9.910;2024-02-26T11:25:21;3.93;;;2.50;;
19877;SDS011;10101;52.204;9.910;2024-02-26T11:27:49;2.27;;;1.90;;
19877;SDS011;10101;52.204;9.910;2024-02-26T11:30:19;1.97;;;1.70;;
19877;SDS011;10101;52.204;9.910;2024-02-26T11:32:49;2.90;;;2.00;;
19877;SDS011;10101;52.204;9.910;2024-02-26T11:35:17;2.33;;;1.80;;
19877;SDS011;10101;52.204;9.910;2024-02-26T11:37:51;4.93;;;2.20;;
19877;SDS011;10101;52.204;9.910;2024-02-26T11:40:19;2.50;;;1.83;;
19877;SDS011;10101;52.204;9.910;2024-02-26T11:42:46;3.30;;;2.17;;
19877;SDS011;10101;52.204;9.910;2024-02-26T11:48:21;3.97;;;2.40;;
19877;SDS011;10101;52.204;9.910;2024-02-26T11:50:49;2.73;;;2.20;;
19877;SDS011;10101;52.204;9.910;2024-02-26T11:53:19;2.67;;;2.03;;
19877;SDS011;10101;52.204;9.910;2024-02-26T11:58:46;2.93;;;2.13;;
19877;SDS011;10101;52.204;9.910;2024-02-26T12:04:15;3.40;;;2.50;;
19877;SDS011;10101;52.204;9.910;2024-02-26T12:06:46;3.60;;;2.77;;
19877;SDS011;10101;52.204;9.910;2024-02-26T12:12:02;3.67;;;2.47;;
19877;SDS011;10101;52.204;9.910;2024-02-26T12:14:32;4.50;;;2.97;;
19877;SDS011;10101;52.204;9.910;2024-02-26T12:16:59;4.73;;;2.70;;
19877;SDS011;10101;52.204;9.910;2024-02-26T12:19:28;4.47;;;2.67;;
19877;SDS011;10101;52.204;9.910;2024-02-26T12:21:57;4.30;;;2.47;;
19877;SDS011;10101;52.204;9.910;2024-02-26T12:24:24;4.07;;;2.43;;
19877;SDS011;10101;52.204;9.910;2024-02-26T12:26:51;8.03;;;2.97;;
19877;SDS011;10101;52.204;9.910;2024-02-26T12:29:17;5.27;;;2.70;;
19877;SDS011;10101;52.204;9.910;2024-02-26T12:31:44;5.47;;;3.20;;
19877;SDS011;10101;52.204;9.910;2024-02-26T12:34:11;5.57;;;3.20;;
19877;SDS011;10101;52.204;9.910;2024-02-26T12:36:40;5.07;;;2.97;;
19877;SDS011;10101;52.204;9.910;2024-02-26T12:39:07;5.37;;;3.33;;
19877;SDS011;10101;52.204;9.910;2024-02-26T12:41:34;7.30;;;3.40;;
19877;SDS011;10101;52.204;9.910;2024-02-26T12:44:01;7.33;;;3.07;;
19877;SDS011;10101;52.204;9.910;2024-02-26T12:46:28;6.03;;;3.20;;
19877;SDS011;10101;52.204;9.910;2024-02-26T12:48:55;6.27;;;3.50;;
19877;SDS011;10101;52.204;9.910;2024-02-26T12:51:23;5.43;;;3.53;;
19877;SDS011;10101;52.204;9.910;2024-02-26T12:53:52;8.33;;;3.63;;
19877;SDS011;10101;52.204;9.910;2024-02-26T12:56:21;6.37;;;3.67;;
19877;SDS011;10101;52.204;9.910;2024-02-26T12:58:48;5.93;;;3.60;;
19877;SDS011;10101;52.204;9.910;2024-02-26T13:01:17;6.27;;;3.70;;
19877;SDS011;10101;52.204;9.910;2024-02-26T13:03:47;6.97;;;4.07;;
19877;SDS011;10101;52.204;9.910;2024-02-26T13:06:15;6.57;;;3.80;;
19877;SDS011;10101;52.204;9.910;2024-02-26T13:08:43;6.60;;;4.00;;
19877;SDS011;10101;52.204;9.910;2024-02-26T13:11:11;6.23;;;3.93;;
19877;SDS011;10101;52.204;9.910;2024-02-26T13:13:38;7.27;;;4.27;;
19877;SDS011;10101;52.204;9.910;2024-02-26T13:16:05;6.03;;;4.10;;
19877;SDS011;10101;52.204;9.910;2024-02-26T13:18:34;6.20;;;4.07;;
19877;SDS011;10101;52.204;9.910;2024-02-26T13:21:11;5.60;;;3.33;;
19877;SDS011;10101;52.204;9.910;2024-02-26T13:23:40;6.57;;;4.00;;
19877;SDS011;10101;52.204;9.910;2024-02-26T13:26:07;6.57;;;3.77;;
19877;SDS011;10101;52.204;9.910;2024-02-26T13:28:38;6.00;;;3.77;;
19877;SDS011;10101;52.204;9.910;2024-02-26T13:31:05;7.53;;;3.40;;
19877;SDS011;10101;52.204;9.910;2024-02-26T13:33:33;5.17;;;3.53;;
19877;SDS011;10101;52.204;9.910;2024-02-26T13:36:00;6.77;;;3.90;;
19877;SDS011;10101;52.204;9.910;2024-02-26T13:38:27;6.20;;;3.60;;
19877;SDS011;10101;52.204;9.910;2024-02-26T13:40:54;7.73;;;4.07;;
19877;SDS011;10101;52.204;9.910;2024-02-26T13:43:20;6.50;;;4.10;;
19877;SDS011;10101;52.204;9.910;2024-02-26T13:45:49;6.80;;;4.10;;
19877;SDS011;10101;52.204;9.910;2024-02-26T13:48:15;4.87;;;3.70;;
19877;SDS011;10101;52.204;9.910;2024-02-26T13:50:42;5.50;;;4.13;;
19877;SDS011;10101;52.204;9.910;2024-02-26T13:53:10;5.47;;;3.80;;
19877;SDS011;10101;52.204;9.910;2024-02-26T13:55:37;5.13;;;3.87;;
19877;SDS011;10101;52.204;9.910;2024-02-26T13:58:07;6.43;;;4.33;;
19877;SDS011;10101;52.204;9.910;2024-02-26T14:00:34;5.50;;;4.10;;
19877;SDS011;10101;52.204;9.910;2024-02-26T14:03:02;8.67;;;4.80;;
19877;SDS011;10101;52.204;9.910;2024-02-26T14:05:29;8.30;;;4.73;;
19877;SDS011;10101;52.204;9.910;2024-02-26T14:07:56;5.67;;;3.87;;
19877;SDS011;10101;52.204;9.910;2024-02-26T14:10:23;6.87;;;4.57;;
19877;SDS011;10101;52.204;9.910;2024-02-26T14:12:50;6.80;;;4.50;;
19877;SDS011;10101;52.204;9.910;2024-02-26T14:15:17;9.07;;;4.30;;
19877;SDS011;10101;52.204;9.910;2024-02-26T14:17:43;9.03;;;4.83;;
19877;SDS011;10101;52.204;9.910;2024-02-26T14:20:12;7.73;;;5.03;;
19877;SDS011;10101;52.204;9.910;2024-02-26T14:22:39;8.00;;;4.60;;
19877;SDS011;10101;52.204;9.910;2024-02-26T14:25:06;10.07;;;4.87;;
19877;SDS011;10101;52.204;9.910;2024-02-26T14:27:34;5.87;;;4.57;;
19877;SDS011;10101;52.204;9.910;2024-02-26T14:30:01;7.27;;;5.00;;
19877;SDS011;10101;52.204;9.910;2024-02-26T14:32:28;7.73;;;4.60;;
19877;SDS011;10101;52.204;9.910;2024-02-26T14:34:56;8.00;;;4.70;;
19877;SDS011;10101;52.204;9.910;2024-02-26T14:37:24;7.53;;;4.87;;
19877;SDS011;10101;52.204;9.910;2024-02-26T14:39:52;8.97;;;4.80;;
19877;SDS011;10101;52.204;9.910;2024-02-26T14:42:19;5.67;;;4.20;;
19877;SDS011;10101;52.204;9.910;2024-02-26T14:44:46;8.43;;;4.97;;
19877;SDS011;10101;52.204;9.910;2024-02-26T14:47:13;6.00;;;4.60;;
19877;SDS011;10101;52.204;9.910;2024-02-26T14:49:39;7.80;;;4.80;;
19877;SDS011;10101;52.204;9.910;2024-02-26T14:52:06;7.17;;;5.00;;
19877;SDS011;10101;52.204;9.910;2024-02-26T14:54:34;9.03;;;5.00;;
19877;SDS011;10101;52.204;9.910;2024-02-26T14:57:04;7.73;;;5.00;;
19877;SDS011;10101;52.204;9.910;2024-02-26T14:59:31;7.93;;;5.13;;
19877;SDS011;10101;52.204;9.910;2024-02-26T15:01:58;7.47;;;4.90;;